»·PEaware :: USA321 KGEG-KEUG

USA321 :: KGEG-KEUG

FLIGHT INFORMATION

Flight Status: Arrived
Operator:
US Airways
More flights by this operator :: More flights under this callsign
Pilot: Jeff S. (20204)
Aircraft: BOEING 737-200
(B732)
More flights by this aircraft type
Origin: KGEG Spokane Intl
United States
Destination: KEUG Mahlon Sweet
United States
More flights between these airports :: More routes between these airports
Route: +GANGS V448 BTG V23 ALFOR
File this flight plan on PilotEdge
Remarks:
Altitude:
(Current/Filed)
28,000ft
Speed:
(Current/Filed)
400kts
Departed: 20-Nov-18 07:50 PM
Arrived: 20-Nov-18 09:02 PM
Distance/Time
Traveled:
317nm/1:11
Distance/Time
To Go:
Arrived

Flight Plot

Page will automatically refresh every two minutes.

Flight plan parsing failed; only flown route is shown


Map Options




Map Legend


Flown Route
Filed Route
Departure Airport
Arrival Airport
Navaid (VOR, NDB)
Fix

Horizontal Profiles

Position Reports

Time Latitude Longitude Heading Altitude Ground
Speed
20-Nov-18 19:21 47.623364 -117.540366 0 2363ft 0kts
20-Nov-18 19:22 47.623364 -117.540366 0 2363ft 0kts
20-Nov-18 19:23 47.623364 -117.540366 0 2363ft 0kts
20-Nov-18 19:24 47.623364 -117.540366 0 2363ft 0kts
20-Nov-18 19:25 47.623364 -117.540366 0 2363ft 0kts
20-Nov-18 19:26 47.623364 -117.540366 0 2363ft 0kts
20-Nov-18 19:27 47.623364 -117.540366 0 2363ft 0kts
20-Nov-18 19:28 47.623364 -117.540366 0 2363ft 0kts
20-Nov-18 19:29 47.623364 -117.540366 0 2363ft 0kts
20-Nov-18 19:30 47.623364 -117.540366 0 2363ft 0kts
20-Nov-18 19:31 47.623364 -117.540366 0 2363ft 0kts
20-Nov-18 19:32 47.623364 -117.540366 0 2363ft 0kts
20-Nov-18 19:33 47.623364 -117.540366 0 2363ft 0kts
20-Nov-18 19:34 47.623364 -117.540366 0 2363ft 0kts
20-Nov-18 19:35 47.623364 -117.540366 0 2363ft 0kts
20-Nov-18 19:36 47.623364 -117.540366 0 2363ft 0kts
20-Nov-18 19:37 47.623364 -117.540366 0 2363ft 0kts
20-Nov-18 19:38 47.623176 -117.540372 0 2363ft 2kts
20-Nov-18 19:39 47.622643 -117.540593 76 2363ft 2kts
20-Nov-18 19:40 47.622642 -117.540752 90 2363ft 0kts
20-Nov-18 19:41 47.622642 -117.540752 90 2363ft 0kts
20-Nov-18 19:42 47.622642 -117.540752 90 2363ft 0kts
20-Nov-18 19:43 47.622642 -117.540752 90 2363ft 0kts
20-Nov-18 19:44 47.622642 -117.540752 90 2363ft 0kts
20-Nov-18 19:45 47.622642 -117.540752 90 2363ft 0kts
20-Nov-18 19:46 47.622641 -117.538900 89 2363ft 11kts
20-Nov-18 19:47 47.619695 -117.539597 225 2363ft 21kts
20-Nov-18 19:48 47.615133 -117.546489 224 2363ft 22kts
20-Nov-18 19:49 47.611425 -117.551631 165 2363ft 12kts
20-Nov-18 19:50 47.610884 -117.551005 134 2363ft 0kts
20-Nov-18 19:51 47.610576 -117.550536 133 2363ft 13kts
20-Nov-18 19:52 47.610642 -117.549278 44 2363ft 0kts
20-Nov-18 19:53 47.629980 -117.520047 40 3036ft 181kts
20-Nov-18 19:54 47.670078 -117.467435 38 6368ft 209kts
20-Nov-18 19:55 47.708486 -117.403914 84 9635ft 222kts
20-Nov-18 19:56 47.670991 -117.370694 217 12312ft 207kts
20-Nov-18 19:57 47.665045 -117.468250 294 12856ft 335kts
20-Nov-18 19:58 47.749563 -117.546288 352 11477ft 390kts
20-Nov-18 19:59 47.813566 -117.627029 264 11525ft 272kts
20-Nov-18 20:00 47.771446 -117.695611 212 11465ft 211kts
20-Nov-18 20:01 47.713088 -117.747995 211 12040ft 298kts
20-Nov-18 20:02 47.642105 -117.810789 211 15188ft 309kts
20-Nov-18 20:03 47.567194 -117.876809 212 17817ft 324kts
20-Nov-18 20:04 47.501383 -117.962368 247 20062ft 335kts
20-Nov-18 20:05 47.470483 -118.094703 251 22093ft 347kts
20-Nov-18 20:06 47.441660 -118.231830 252 23854ft 358kts
20-Nov-18 20:07 47.412094 -118.373828 253 25409ft 368kts
20-Nov-18 20:08 47.381599 -118.519551 253 26794ft 376kts
20-Nov-18 20:09 47.351196 -118.663815 252 27969ft 384kts
20-Nov-18 20:10 47.318636 -118.817218 252 28155ft 414kts
20-Nov-18 20:11 47.282926 -118.984275 251 28152ft 441kts
20-Nov-18 20:12 47.245062 -119.159590 251 28148ft 458kts
20-Nov-18 20:13 47.198609 -119.331659 234 28151ft 451kts
20-Nov-18 20:14 47.121932 -119.475672 231 28138ft 448kts
20-Nov-18 20:15 47.043599 -119.615772 231 28138ft 446kts
20-Nov-18 20:16 46.966231 -119.753005 230 28136ft 445kts
20-Nov-18 20:17 46.889646 -119.888151 230 28135ft 444kts
20-Nov-18 20:18 46.810972 -120.026263 230 28139ft 444kts
20-Nov-18 20:19 46.733204 -120.162130 230 28151ft 444kts
20-Nov-18 20:20 46.654160 -120.299521 230 28155ft 444kts
20-Nov-18 20:21 46.575609 -120.437319 236 28140ft 444kts
20-Nov-18 20:22 46.515504 -120.593373 241 28153ft 444kts
20-Nov-18 20:23 46.458704 -120.745979 241 28156ft 444kts
20-Nov-18 20:24 46.401202 -120.900021 241 28155ft 444kts
20-Nov-18 20:25 46.342770 -121.055668 240 28159ft 444kts
20-Nov-18 20:26 46.285089 -121.208530 239 28181ft 442kts
20-Nov-18 20:27 46.227832 -121.359199 239 28197ft 440kts
20-Nov-18 20:28 46.170540 -121.509225 239 28196ft 439kts
20-Nov-18 20:29 46.114127 -121.656128 238 28195ft 438kts
20-Nov-18 20:30 46.060260 -121.795702 238 28113ft 440kts
20-Nov-18 20:31 46.005235 -121.937553 238 27984ft 442kts
20-Nov-18 20:32 45.946903 -122.087133 238 27976ft 440kts
20-Nov-18 20:33 45.889614 -122.233238 238 27983ft 439kts
20-Nov-18 20:34 45.831950 -122.379570 238 27939ft 407kts
20-Nov-18 20:35 45.779975 -122.510707 238 26382ft 373kts
20-Nov-18 20:36 45.707930 -122.601545 201 24095ft 356kts
20-Nov-18 20:37 45.617810 -122.642523 197 21934ft 345kts
20-Nov-18 20:38 45.530782 -122.677791 196 19880ft 335kts
20-Nov-18 20:39 45.444525 -122.712037 196 17841ft 324kts
20-Nov-18 20:40 45.372150 -122.740631 196 16121ft 316kts
20-Nov-18 20:41 45.296595 -122.770372 196 15973ft 273kts
20-Nov-18 20:42 45.213349 -122.803065 195 15986ft 346kts
20-Nov-18 20:43 45.114663 -122.841622 195 15984ft 396kts
20-Nov-18 20:44 45.009542 -122.882554 195 16039ft 380kts
20-Nov-18 20:45 44.916368 -122.919587 198 15956ft 321kts
20-Nov-18 20:46 44.839510 -122.953645 195 15969ft 281kts
20-Nov-18 20:47 44.767042 -122.979476 194 14874ft 277kts
20-Nov-18 20:48 44.695118 -123.004918 194 13461ft 263kts
20-Nov-18 20:49 44.626066 -123.030794 195 11956ft 254kts
20-Nov-18 20:50 44.558110 -123.056644 198 10249ft 256kts
20-Nov-18 20:51 44.492873 -123.089044 205 8513ft 262kts
20-Nov-18 20:52 44.432438 -123.119783 204 7785ft 212kts
20-Nov-18 20:53 44.377502 -123.149074 204 6003ft 213kts
20-Nov-18 20:54 44.323361 -123.180224 205 4316ft 211kts
20-Nov-18 20:55 44.293678 -123.239755 283 3618ft 250kts
20-Nov-18 20:56 44.308000 -123.313599 285 3993ft 233kts
20-Nov-18 20:57 44.353000 -123.372798 2 4014ft 268kts
20-Nov-18 20:58 44.406882 -123.323790 89 3994ft 248kts
20-Nov-18 20:59 44.378558 -123.225781 144 4003ft 235kts
20-Nov-18 21:00 44.333129 -123.202422 191 3769ft 216kts
20-Nov-18 21:01 44.278462 -123.221785 180 2320ft 208kts
20-Nov-18 21:03 44.180775 -123.218834 181 1089ft 194kts
20-Nov-18 21:04 44.134807 -123.219134 179 381ft 127kts
20-Nov-18 21:05 44.116937 -123.218843 178 369ft 14kts
20-Nov-18 21:06 44.120188 -123.215664 30 369ft 21kts
20-Nov-18 21:07 44.120164 -123.213375 238 369ft 3kts
20-Nov-18 21:08 44.120117 -123.213485 239 369ft 0kts

Navigation Log

Ident Type
Flight plan parsing failed, navigation log unavailable